Time;durP1;ratioP1;P1;durP2;ratioP2;P2;SDS_P1;SDS_P2;PMS_P1;PMS_P2;Temp;Humidity;BMP_temperature;BMP_pressure;BME280_temperature;BME280_humidity;BME280_pressure;Samples;Min_cycle;Max_cycle;Signal;HPM_P1;HPM_P2
2022/10/03 07:00:57;;;;;;;1.75;1.05;;;16.90;99.90;;;;;;6185997;23;20204;-70
2022/10/03 07:03:56;;;;;;;2.00;1.10;;;17.50;99.90;;;;;;6186173;23;20732;-71
2022/10/03 07:06:41;;;;;;;3.08;1.17;;;17.90;99.90;;;;;;6186678;23;20224;-67
2022/10/03 07:09:52;;;;;;;2.83;1.17;;;18.50;99.90;;;;;;6187131;23;20181;-67
2022/10/03 07:12:46;;;;;;;3.72;1.45;;;19.10;99.90;;;;;;6186522;23;20181;-67
2022/10/03 07:15:48;;;;;;;2.40;1.45;;;19.60;99.90;;;;;;6171422;23;20224;-67
2022/10/03 07:18:43;;;;;;;3.10;1.40;;;20.00;99.90;;;;;;6160139;23;20239;-67
2022/10/03 07:21:38;;;;;;;3.20;1.40;;;20.30;99.90;;;;;;6186180;23;20204;-67
2022/10/03 07:24:18;;;;;;;2.45;1.30;;;20.40;99.90;;;;;;6185905;23;20188;-67
2022/10/03 07:27:08;;;;;;;7.43;1.65;;;20.40;99.90;;;;;;6186124;23;20521;-69
2022/10/03 07:30:07;;;;;;;4.53;1.90;;;20.50;99.90;;;;;;6185365;23;20177;-68
2022/10/03 07:33:22;;;;;;;4.57;1.70;;;20.70;99.90;;;;;;6185805;23;20177;-68
2022/10/03 07:39:25;;;;;;;3.38;2.10;;;20.80;99.90;;;;;;6186249;23;20180;-68
2022/10/03 07:42:24;;;;;;;5.82;2.00;;;20.80;99.90;;;;;;6185855;23;20236;-68
2022/10/03 07:45:33;;;;;;;5.60;2.30;;;21.00;99.90;;;;;;6185707;23;20203;-68
2022/10/03 07:48:35;;;;;;;8.40;2.60;;;21.10;99.90;;;;;;6186227;23;20184;-68
2022/10/03 07:51:13;;;;;;;4.75;2.30;;;20.90;99.90;;;;;;6185541;23;20211;-68
2022/10/03 07:54:16;;;;;;;5.70;2.00;;;21.10;99.90;;;;;;6185901;23;20176;-68
2022/10/03 07:57:15;;;;;;;4.55;2.13;;;21.30;99.90;;;;;;6185750;23;20208;-68
2022/10/03 08:00:08;;;;;;;7.57;2.13;;;21.00;99.90;;;;;;6185385;23;20192;-68
2022/10/03 08:03:15;;;;;;;6.10;2.25;;;21.30;99.90;;;;;;6185781;23;20181;-68
2022/10/03 08:06:22;;;;;;;3.72;1.63;;;21.00;99.90;;;;;;6185175;23;20209;-68
2022/10/03 08:09:34;;;;;;;4.10;1.83;;;20.80;99.90;;;;;;6179544;23;20177;-68
2022/10/03 08:12:33;;;;;;;4.95;2.13;;;20.40;99.90;;;;;;6185927;23;20213;-68
2022/10/03 08:15:20;;;;;;;6.40;2.42;;;20.00;99.90;;;;;;6185461;23;20202;-68
2022/10/03 08:18:08;;;;;;;5.05;2.22;;;20.00;99.90;;;;;;6185499;23;20268;-68
2022/10/03 08:20:52;;;;;;;4.65;2.17;;;20.40;99.90;;;;;;6185470;23;20203;-68
2022/10/03 08:23:48;;;;;;;5.28;2.25;;;20.20;99.90;;;;;;6182994;23;20220;-68
2022/10/03 08:26:29;;;;;;;7.18;2.05;;;20.10;99.90;;;;;;6182730;23;20201;-68
2022/10/03 08:29:12;;;;;;;4.90;2.25;;;20.20;99.90;;;;;;6183603;23;20213;-68
2022/10/03 08:32:12;;;;;;;7.40;2.50;;;20.60;99.90;;;;;;6183657;23;20256;-67
2022/10/03 08:35:11;;;;;;;7.38;2.05;;;20.50;99.90;;;;;;6183311;23;20181;-68
2022/10/03 08:38:17;;;;;;;5.55;2.15;;;19.80;99.90;;;;;;6183161;23;20195;-67
2022/10/03 08:41:34;;;;;;;10.85;2.55;;;20.20;99.90;;;;;;6164545;23;20188;-68
2022/10/03 08:44:20;;;;;;;7.97;2.63;;;20.50;99.90;;;;;;6144623;23;20217;-67
2022/10/03 08:47:21;;;;;;;11.98;3.00;;;21.20;99.90;;;;;;6183870;23;20521;-67
2022/10/03 08:50:23;;;;;;;6.22;2.28;;;21.10;99.90;;;;;;6184429;23;20513;-67
2022/10/03 08:53:30;;;;;;;6.47;2.42;;;20.80;99.90;;;;;;6185675;23;20177;-68
2022/10/03 08:56:06;;;;;;;4.55;2.15;;;20.80;99.90;;;;;;6185377;23;20561;-68
2022/10/03 08:59:20;;;;;;;5.35;2.78;;;20.30;99.90;;;;;;6185262;23;20625;-68
2022/10/03 09:02:17;;;;;;;6.43;2.25;;;20.20;99.90;;;;;;6147860;23;20185;-67
2022/10/03 09:05:26;;;;;;;6.40;2.30;;;19.60;99.90;;;;;;6185326;23;20633;-67
2022/10/03 09:08:18;;;;;;;5.18;2.20;;;19.10;99.90;;;;;;6101956;23;20180;-67
2022/10/03 09:11:15;;;;;;;4.18;2.30;;;18.60;99.90;;;;;;6185621;23;20205;-67
2022/10/03 09:14:26;;;;;;;5.75;2.17;;;18.30;99.90;;;;;;6140133;23;20177;-67
2022/10/03 09:17:32;;;;;;;5.68;1.95;;;18.00;99.90;;;;;;6185700;23;20181;-67
2022/10/03 09:20:30;;;;;;;9.88;2.20;;;17.90;99.90;;;;;;6181585;23;20185;-67
2022/10/03 09:23:14;;;;;;;8.55;1.80;;;17.90;99.90;;;;;;6185766;23;20181;-67
2022/10/03 09:26:00;;;;;;;5.63;2.00;;;18.10;99.90;;;;;;6185299;23;20196;-67
2022/10/03 09:28:54;;;;;;;4.82;2.00;;;18.20;99.90;;;;;;6185466;23;20177;-68
2022/10/03 09:31:50;;;;;;;4.18;1.95;;;18.20;99.90;;;;;;6185172;23;20531;-68
2022/10/03 09:34:47;;;;;;;6.40;1.85;;;18.20;99.90;;;;;;6185585;23;20177;-67
2022/10/03 09:37:42;;;;;;;3.90;1.42;;;18.40;99.90;;;;;;6185538;23;20264;-68
2022/10/03 09:40:50;;;;;;;3.97;1.75;;;18.20;99.90;;;;;;6185443;23;20225;-68
2022/10/03 09:43:59;;;;;;;4.82;1.73;;;18.30;99.90;;;;;;6184773;23;20183;-68
2022/10/03 09:50:06;;;;;;;1.80;0.80;;;18.10;99.90;;;;;;6184296;23;20255;-68
2022/10/03 09:52:49;;;;;;;5.20;1.00;;;17.90;99.90;;;;;;6184255;23;20585;-68
2022/10/03 09:55:39;;;;;;;2.28;1.02;;;17.80;99.90;;;;;;6185503;23;20271;-68
2022/10/03 09:58:26;;;;;;;6.20;0.95;;;17.90;99.90;;;;;;6184920;23;20177;-68
2022/10/03 10:01:13;;;;;;;6.22;1.33;;;17.90;99.90;;;;;;6184534;23;20181;-68
2022/10/03 10:04:16;;;;;;;5.95;1.30;;;17.90;99.90;;;;;;6184924;23;20188;-68
2022/10/03 10:07:25;;;;;;;1.30;0.70;;;17.70;99.90;;;;;;6151152;23;20219;-68
2022/10/03 10:10:26;;;;;;;3.50;0.90;;;17.70;99.90;;;;;;6162627;23;20176;-68
2022/10/03 10:13:13;;;;;;;6.47;1.40;;;17.80;99.90;;;;;;6184892;23;20185;-68
2022/10/03 10:16:19;;;;;;;3.47;0.90;;;17.90;99.90;;;;;;6184969;23;20220;-68
2022/10/03 10:19:32;;;;;;;3.58;0.82;;;17.90;99.90;;;;;;6185260;23;20626;-67
2022/10/03 10:22:31;;;;;;;2.38;1.10;;;17.90;99.90;;;;;;6185051;23;20181;-67
2022/10/03 10:25:34;;;;;;;3.90;1.20;;;18.10;99.90;;;;;;6184129;23;20197;-68
2022/10/03 10:28:19;;;;;;;2.38;1.00;;;18.20;99.90;;;;;;6184891;23;20184;-67
2022/10/03 10:31:15;;;;;;;3.35;0.88;;;18.20;99.90;;;;;;6184449;23;20211;-67
2022/10/03 10:34:33;;;;;;;2.22;0.80;;;18.20;99.90;;;;;;6139310;23;20177;-67
2022/10/03 10:37:48;;;;;;;4.00;0.80;;;18.20;99.90;;;;;;6184661;23;20505;-67
2022/10/03 10:40:51;;;;;;;6.70;1.10;;;18.30;99.90;;;;;;6185764;23;20177;-67
2022/10/03 10:43:48;;;;;;;3.33;1.10;;;18.60;99.90;;;;;;6140108;23;20501;-68
2022/10/03 10:46:49;;;;;;;2.55;0.60;;;18.70;99.90;;;;;;6186822;23;20284;-67
2022/10/03 10:49:51;;;;;;;2.00;0.70;;;18.80;99.90;;;;;;6184814;23;20181;-67
2022/10/03 10:52:54;;;;;;;2.83;1.00;;;19.00;99.90;;;;;;6186312;23;20205;-68
2022/10/03 10:55:56;;;;;;;5.15;0.93;;;19.30;99.90;;;;;;6186873;23;20203;-68
2022/10/03 10:59:19;;;;;;;3.38;0.85;;;19.40;99.90;;;;;;6186721;23;20176;-68
2022/10/03 11:02:19;;;;;;;6.82;0.70;;;19.50;99.90;;;;;;6187096;23;20177;-68
2022/10/03 11:05:28;;;;;;;2.40;0.80;;;19.50;99.90;;;;;;6186619;23;20177;-68
2022/10/03 11:08:42;;;;;;;2.05;0.60;;;19.40;99.90;;;;;;6186781;23;20181;-68
2022/10/03 11:11:40;;;;;;;2.38;0.65;;;19.60;99.90;;;;;;6186521;23;20201;-68
2022/10/03 11:14:42;;;;;;;1.17;0.50;;;19.30;99.90;;;;;;6137739;23;20181;-72
2022/10/03 11:17:54;;;;;;;2.78;0.40;;;19.30;99.90;;;;;;6182323;23;20181;-69
2022/10/03 11:21:06;;;;;;;2.28;0.63;;;19.40;99.90;;;;;;6144338;23;20181;-69
2022/10/03 11:23:58;;;;;;;3.25;0.70;;;19.10;99.90;;;;;;6186736;23;20181;-68
2022/10/03 11:27:05;;;;;;;1.00;0.30;;;19.30;99.90;;;;;;6186064;23;20198;-67
2022/10/03 11:30:17;;;;;;;1.15;0.47;;;19.00;99.90;;;;;;6186189;23;20181;-69
2022/10/03 11:33:20;;;;;;;1.17;0.40;;;19.00;99.90;;;;;;6185875;23;20215;-68
2022/10/03 11:36:18;;;;;;;3.40;0.50;;;18.70;99.90;;;;;;6186597;23;20300;-69
2022/10/03 11:38:55;;;;;;;2.25;0.45;;;18.60;99.90;;;;;;6185658;23;20626;-68
2022/10/03 11:41:39;;;;;;;3.75;0.63;;;18.30;99.90;;;;;;6186344;23;20181;-67
2022/10/03 11:44:19;;;;;;;1.77;0.60;;;18.40;99.90;;;;;;6186248;23;20184;-68
2022/10/03 11:47:02;;;;;;;3.50;0.52;;;18.40;99.90;;;;;;6186128;23;20197;-68
2022/10/03 11:49:53;;;;;;;1.52;0.50;;;18.40;99.90;;;;;;6186680;23;20177;-69
2022/10/03 11:52:29;;;;;;;1.83;0.40;;;18.60;99.90;;;;;;6186025;23;20291;-68
2022/10/03 11:55:18;;;;;;;2.40;0.57;;;18.90;99.90;;;;;;6186382;23;20205;-70
2022/10/03 11:57:56;;;;;;;3.85;0.60;;;18.80;99.90;;;;;;6186788;23;20177;-68
2022/10/03 12:00:25;;;;;;;3.70;0.65;;;18.60;99.90;;;;;;6185867;23;20195;-68
2022/10/03 12:03:12;;;;;;;2.72;0.60;;;18.60;99.90;;;;;;6186434;23;20184;-69
2022/10/03 12:05:51;;;;;;;2.95;0.55;;;18.60;99.90;;;;;;6186423;23;20575;-68
2022/10/03 12:11:20;;;;;;;3.25;0.70;;;18.90;99.90;;;;;;6185626;23;20180;-69
2022/10/03 12:14:01;;;;;;;2.60;0.43;;;18.90;99.90;;;;;;6185340;23;20184;-68
2022/10/03 12:16:42;;;;;;;1.80;0.43;;;18.90;99.90;;;;;;6186043;23;20208;-68
2022/10/03 12:19:22;;;;;;;3.38;0.60;;;19.00;99.90;;;;;;6186267;23;20216;-68
2022/10/03 12:21:55;;;;;;;0.82;0.32;;;19.00;99.90;;;;;;6186342;23;20181;-67
2022/10/03 12:24:27;;;;;;;1.10;0.50;;;19.00;99.90;;;;;;6186353;23;20181;-68
2022/10/03 12:27:02;;;;;;;3.20;0.50;;;18.90;99.90;;;;;;6185626;23;20507;-67
2022/10/03 12:29:34;;;;;;;4.10;0.40;;;18.80;99.90;;;;;;6185708;23;20176;-67
2022/10/03 12:32:18;;;;;;;1.23;0.45;;;19.00;99.90;;;;;;6185309;23;20204;-68
2022/10/03 12:34:53;;;;;;;2.45;0.47;;;19.10;99.90;;;;;;6185761;23;20199;-67
2022/10/03 12:37:41;;;;;;;2.78;0.47;;;19.20;99.90;;;;;;6185723;23;20232;-67
2022/10/03 12:40:15;;;;;;;1.40;0.47;;;19.10;99.90;;;;;;6186063;23;20183;-72
2022/10/03 12:42:50;;;;;;;2.67;0.73;;;19.00;99.90;;;;;;6185967;23;20176;-72
2022/10/03 12:45:26;;;;;;;2.05;0.60;;;19.00;99.90;;;;;;6185509;23;20196;-66
2022/10/03 12:48:14;;;;;;;1.80;0.55;;;18.90;99.90;;;;;;6181013;23;20280;-70
2022/10/03 12:50:46;;;;;;;1.20;0.50;;;18.90;99.90;;;;;;6184524;23;20177;-68
2022/10/03 12:53:31;;;;;;;1.58;0.60;;;19.10;99.90;;;;;;6185123;23;20209;-68
2022/10/03 12:56:13;;;;;;;2.53;0.40;;;19.30;99.90;;;;;;6212575;22;20211;-68
2022/10/03 13:02:35;;;;;;;3.13;0.75;;;19.00;99.90;;;;;;6243974;23;20167;-68
2022/10/03 13:05:29;;;;;;;3.45;0.57;;;19.30;99.90;;;;;;6179445;23;20202;-68
2022/10/03 13:08:01;;;;;;;4.43;0.57;;;19.40;99.90;;;;;;6242007;22;20198;-69
2022/10/03 13:10:38;;;;;;;1.63;0.60;;;19.50;99.90;;;;;;6244800;23;20183;-68
2022/10/03 13:13:22;;;;;;;1.58;0.63;;;19.70;99.90;;;;;;6242960;23;20203;-69
2022/10/03 13:16:12;;;;;;;2.65;0.75;;;19.60;99.90;;;;;;6243993;23;20202;-71
2022/10/03 13:18:53;;;;;;;2.25;0.57;;;19.40;99.90;;;;;;6243241;23;20184;-71
2022/10/03 13:21:29;;;;;;;1.17;0.40;;;19.30;99.90;;;;;;6243817;23;20258;-70
2022/10/03 13:24:01;;;;;;;2.15;0.95;;;19.10;99.90;;;;;;6244160;23;20182;-67
2022/10/03 13:26:42;;;;;;;1.13;0.50;;;19.00;99.90;;;;;;6242284;23;20196;-71
2022/10/03 13:29:16;;;;;;;1.73;0.40;;;19.00;99.90;;;;;;6244044;23;20176;-69
2022/10/03 13:32:08;;;;;;;0.80;0.40;;;19.00;99.90;;;;;;6243807;23;20246;-69
2022/10/03 13:34:57;;;;;;;2.78;0.60;;;19.00;99.90;;;;;;6243470;23;20500;-69
2022/10/03 13:37:35;;;;;;;2.65;0.40;;;18.90;99.90;;;;;;6243697;23;20206;-71
2022/10/03 13:40:06;;;;;;;1.75;0.47;;;18.80;99.90;;;;;;6244165;23;20176;-70
2022/10/03 13:42:40;;;;;;;1.65;0.50;;;18.80;99.90;;;;;;6243535;23;20179;-72
2022/10/03 13:45:15;;;;;;;2.75;0.70;;;18.90;99.90;;;;;;6243847;23;20269;-71
2022/10/03 13:47:46;;;;;;;1.70;0.38;;;19.10;99.90;;;;;;6244164;23;20175;-70
2022/10/03 13:50:18;;;;;;;2.88;0.75;;;19.30;99.90;;;;;;6243717;23;20180;-71
2022/10/03 13:52:52;;;;;;;1.80;0.40;;;19.10;99.90;;;;;;6244010;23;20758;-70
2022/10/03 13:55:32;;;;;;;1.00;0.60;;;19.40;99.90;;;;;;6243144;23;20203;-70
2022/10/03 13:58:23;;;;;;;1.13;0.50;;;19.50;99.90;;;;;;6243522;23;20179;-69
2022/10/03 14:01:14;;;;;;;1.90;0.50;;;19.50;99.90;;;;;;6243402;23;20636;-68
2022/10/03 14:03:52;;;;;;;3.30;0.60;;;19.60;99.90;;;;;;6242668;22;20179;-69
2022/10/03 14:06:24;;;;;;;3.88;0.70;;;19.50;99.90;;;;;;6243740;23;20195;-67
2022/10/03 14:09:13;;;;;;;1.92;0.40;;;19.30;99.90;;;;;;6243653;23;20694;-68
2022/10/03 14:11:47;;;;;;;3.95;0.77;;;19.20;99.90;;;;;;6208253;22;20504;-69
2022/10/03 14:14:47;;;;;;;1.63;0.50;;;19.20;99.90;;;;;;6243774;23;20709;-69
2022/10/03 14:17:19;;;;;;;2.50;0.55;;;19.10;99.90;;;;;;6245308;23;20190;-70
2022/10/03 14:20:01;;;;;;;1.08;0.50;;;19.10;99.90;;;;;;6245441;23;20225;-71
2022/10/03 14:22:46;;;;;;;1.98;0.60;;;19.20;99.90;;;;;;6245692;23;20181;-70
2022/10/03 14:25:23;;;;;;;2.00;0.50;;;19.20;99.90;;;;;;6244383;23;20203;-70
2022/10/03 14:27:53;;;;;;;3.78;0.70;;;19.10;99.90;;;;;;6246015;23;20184;-70
2022/10/03 14:30:23;;;;;;;4.13;0.60;;;19.00;99.90;;;;;;6245939;23;20632;-73
2022/10/03 14:32:58;;;;;;;2.90;0.60;;;18.90;99.90;;;;;;6245035;23;20286;-70
2022/10/03 14:35:37;;;;;;;3.80;1.02;;;18.80;99.90;;;;;;6245456;23;20194;-71
2022/10/03 14:38:15;;;;;;;2.75;0.68;;;18.60;99.90;;;;;;6244964;23;20176;-70
2022/10/03 14:40:48;;;;;;;3.05;0.80;;;18.70;99.90;;;;;;6244893;23;20181;-70
2022/10/03 14:43:30;;;;;;;4.25;0.77;;;18.80;99.90;;;;;;6245450;23;20180;-72
2022/10/03 14:45:58;;;;;;;2.80;0.88;;;18.70;99.90;;;;;;6245305;23;20195;-71
2022/10/03 14:48:29;;;;;;;3.95;0.65;;;18.70;99.90;;;;;;6245126;23;20259;-68
2022/10/03 14:51:06;;;;;;;4.32;0.80;;;18.60;99.90;;;;;;6246388;22;20651;-68
2022/10/03 14:53:34;;;;;;;2.60;0.82;;;18.40;99.90;;;;;;6246236;23;20214;-69
2022/10/03 14:56:06;;;;;;;2.50;0.98;;;18.30;99.90;;;;;;6246360;23;20207;-68
2022/10/03 14:58:36;;;;;;;2.08;0.90;;;18.30;99.90;;;;;;6246471;23;20194;-68
2022/10/03 15:01:11;;;;;;;1.95;0.90;;;18.30;99.90;;;;;;6246778;23;20182;-68
2022/10/03 15:03:42;;;;;;;5.57;0.98;;;18.30;99.90;;;;;;6246939;23;20175;-70
2022/10/03 15:06:35;;;;;;;4.00;1.00;;;18.20;99.90;;;;;;6246846;22;20206;-68
2022/10/03 15:09:08;;;;;;;3.83;1.20;;;18.10;99.90;;;;;;6244232;23;20258;-72
2022/10/03 15:11:44;;;;;;;2.70;1.05;;;17.90;99.90;;;;;;6247173;23;20416;-69
2022/10/03 15:14:12;;;;;;;4.97;1.40;;;17.90;99.90;;;;;;6246966;23;20563;-68
2022/10/03 15:16:44;;;;;;;4.80;1.00;;;18.00;99.90;;;;;;6246939;23;20548;-74
2022/10/03 15:19:16;;;;;;;2.97;1.10;;;18.00;99.90;;;;;;6246410;23;20180;-68
2022/10/03 15:21:45;;;;;;;2.67;1.17;;;18.10;99.90;;;;;;6246775;23;20176;-67
2022/10/03 15:24:20;;;;;;;2.28;1.10;;;18.00;99.90;;;;;;6246413;23;20180;-77
2022/10/03 15:26:51;;;;;;;3.22;1.25;;;18.00;99.90;;;;;;6246338;23;20205;-69
2022/10/03 15:29:23;;;;;;;4.65;1.55;;;17.90;99.90;;;;;;6246679;23;20180;-73
2022/10/03 15:31:50;;;;;;;6.33;1.90;;;17.80;99.90;;;;;;6246793;23;20186;-72
2022/10/03 15:34:20;;;;;;;2.70;1.00;;;18.00;99.90;;;;;;6246549;23;20214;-69
2022/10/03 15:36:51;;;;;;;3.75;1.33;;;17.90;99.90;;;;;;6246619;23;20459;-69
2022/10/03 15:39:23;;;;;;;3.80;1.85;;;17.90;99.90;;;;;;6246413;23;20647;-68
2022/10/03 15:41:55;;;;;;;1.47;0.90;;;17.70;99.90;;;;;;6246647;23;20180;-68
2022/10/03 15:44:37;;;;;;;3.37;1.10;;;17.50;99.90;;;;;;6246456;23;20624;-68
2022/10/03 15:47:08;;;;;;;3.17;1.10;;;17.40;99.90;;;;;;6246666;22;20175;-68
2022/10/03 15:49:38;;;;;;;2.63;1.20;;;17.30;99.90;;;;;;6246640;23;20237;-69
2022/10/03 15:52:16;;;;;;;2.80;1.03;;;17.20;99.90;;;;;;6246765;23;20225;-69
2022/10/03 15:54:46;;;;;;;2.60;0.90;;;17.20;99.90;;;;;;6246761;23;20520;-67
2022/10/03 15:57:20;;;;;;;3.47;0.93;;;17.10;99.90;;;;;;6246515;23;20182;-67
2022/10/03 15:59:53;;;;;;;2.73;0.83;;;17.10;99.90;;;;;;6246530;23;20175;-73
2022/10/03 16:02:26;;;;;;;5.07;1.20;;;16.90;99.90;;;;;;6246400;23;20183;-71
2022/10/03 16:04:56;;;;;;;2.50;0.87;;;16.70;99.90;;;;;;6246454;23;20195;-71
2022/10/03 16:07:33;;;;;;;1.93;0.93;;;16.60;99.90;;;;;;6245708;23;20571;-69
2022/10/03 16:10:13;;;;;;;4.20;1.20;;;16.70;99.90;;;;;;6245860;23;20179;-68
2022/10/03 16:13:00;;;;;;;2.57;1.07;;;16.70;99.90;;;;;;6246030;22;20209;-69
2022/10/03 16:15:42;;;;;;;4.13;1.73;;;16.70;99.90;;;;;;6246042;23;20202;-72
2022/10/03 16:18:31;;;;;;;3.90;1.30;;;16.70;99.90;;;;;;6246219;22;20481;-69
2022/10/03 16:21:01;;;;;;;5.20;1.23;;;16.60;99.90;;;;;;6245604;23;20180;-69
2022/10/03 16:23:33;;;;;;;1.50;0.80;;;16.60;99.90;;;;;;6246463;23;20180;-68
2022/10/03 16:26:03;;;;;;;2.27;1.00;;;16.50;99.90;;;;;;6246192;23;20282;-67
2022/10/03 16:28:34;;;;;;;3.50;1.37;;;16.40;99.90;;;;;;6246007;23;20187;-69
2022/10/03 16:31:04;;;;;;;6.93;0.97;;;16.40;99.90;;;;;;6246354;23;20186;-71
2022/10/03 16:33:35;;;;;;;2.10;0.90;;;16.50;99.90;;;;;;6249412;23;20733;-72
2022/10/03 16:36:06;;;;;;;1.30;0.90;;;16.50;99.90;;;;;;6245702;23;20199;-67
2022/10/03 16:38:37;;;;;;;2.40;1.30;;;16.50;99.90;;;;;;6245667;22;20186;-69
2022/10/03 16:41:12;;;;;;;4.63;1.30;;;16.40;99.90;;;;;;6245362;23;20182;-67
2022/10/03 16:43:40;;;;;;;5.50;1.40;;;16.40;99.90;;;;;;6245855;23;20179;-70
2022/10/03 16:46:16;;;;;;;3.03;1.23;;;16.30;99.90;;;;;;6245651;23;20195;-68
2022/10/03 16:51:42;;;;;;;3.50;1.17;;;16.30;99.90;;;;;;6245075;23;20186;-68
2022/10/03 16:54:13;;;;;;;2.67;0.90;;;16.20;99.90;;;;;;6245432;23;20214;-69
2022/10/03 16:56:44;;;;;;;2.77;1.20;;;16.20;99.90;;;;;;6241137;23;20208;-68
2022/10/03 16:59:13;;;;;;;3.67;1.20;;;16.10;99.90;;;;;;6242212;23;21117;-68
2022/10/03 17:01:45;;;;;;;3.90;1.40;;;15.90;99.90;;;;;;6244223;23;20175;-69
2022/10/03 17:04:22;;;;;;;2.20;1.17;;;15.80;99.90;;;;;;6243119;23;20671;-68
2022/10/03 17:06:52;;;;;;;4.43;1.13;;;15.60;99.90;;;;;;6243950;23;20278;-68
2022/10/03 17:09:25;;;;;;;3.27;1.17;;;15.50;99.90;;;;;;6243469;23;20262;-68
2022/10/03 17:11:56;;;;;;;3.33;1.23;;;15.30;99.90;;;;;;6243498;23;20176;-69
2022/10/03 17:14:24;;;;;;;4.00;1.30;;;15.20;99.90;;;;;;6244191;23;20214;-70
2022/10/03 17:16:55;;;;;;;3.97;1.20;;;15.10;99.90;;;;;;6244339;23;20199;-69
2022/10/03 17:19:30;;;;;;;3.93;1.77;;;15.00;99.90;;;;;;6243663;23;20187;-68
2022/10/03 17:22:10;;;;;;;4.20;1.60;;;14.80;99.90;;;;;;6244467;22;20179;-69
2022/10/03 17:24:45;;;;;;;8.10;2.00;;;14.70;99.90;;;;;;6244069;23;20175;-71
2022/10/03 17:27:19;;;;;;;4.13;2.00;;;14.50;99.90;;;;;;6242936;23;20735;-70
2022/10/03 17:29:52;;;;;;;9.37;2.17;;;14.50;99.90;;;;;;6245643;23;20181;-67
2022/10/03 17:32:24;;;;;;;5.53;2.30;;;14.40;99.90;;;;;;6244956;23;20620;-71
2022/10/03 17:34:58;;;;;;;3.57;2.07;;;14.20;99.90;;;;;;6245433;23;20211;-66
2022/10/03 17:38:00;;;;;;;5.30;1.87;;;14.20;99.90;;;;;;6245314;23;20179;-66
2022/10/03 17:40:42;;;;;;;4.13;1.87;;;14.10;99.90;;;;;;6246097;23;20174;-67
2022/10/03 17:43:17;;;;;;;4.63;1.90;;;13.90;99.90;;;;;;6245904;23;20182;-70
2022/10/03 17:45:49;;;;;;;4.33;1.90;;;13.90;99.90;;;;;;6245461;23;20195;-66
2022/10/03 17:48:20;;;;;;;4.47;1.77;;;13.80;99.90;;;;;;6245404;23;20198;-67
2022/10/03 17:50:56;;;;;;;5.03;2.23;;;13.70;99.90;;;;;;6245416;23;20182;-67
2022/10/03 17:53:28;;;;;;;3.93;2.20;;;13.60;99.90;;;;;;6245378;23;20207;-69
2022/10/03 17:55:57;;;;;;;3.57;2.03;;;13.50;99.90;;;;;;6245032;23;20210;-71
2022/10/03 17:58:28;;;;;;;6.50;2.77;;;13.40;99.90;;;;;;6244967;23;20179;-68
2022/10/03 18:01:01;;;;;;;7.40;3.30;;;13.40;99.90;;;;;;6245107;23;20175;-68
2022/10/03 18:03:32;;;;;;;8.87;3.37;;;13.30;99.90;;;;;;6245400;23;20226;-68
2022/10/03 18:06:22;;;;;;;6.57;3.73;;;13.20;99.90;;;;;;6245188;22;20202;-66
2022/10/03 18:08:52;;;;;;;9.20;4.67;;;13.20;99.90;;;;;;6245335;23;20631;-70
2022/10/03 18:11:23;;;;;;;9.43;4.30;;;13.10;99.90;;;;;;6245722;23;20258;-67
2022/10/03 18:13:55;;;;;;;6.43;3.30;;;13.00;99.90;;;;;;6245589;23;20203;-68
2022/10/03 18:16:27;;;;;;;7.50;3.20;;;12.90;99.90;;;;;;6244865;23;20195;-71
2022/10/03 18:19:20;;;;;;;9.97;3.57;;;12.90;99.90;;;;;;6245092;23;20180;-70
2022/10/03 18:21:57;;;;;;;6.67;3.03;;;12.90;99.90;;;;;;6245677;23;20175;-72
2022/10/03 18:24:51;;;;;;;6.90;3.80;;;12.80;99.90;;;;;;6245681;23;20496;-69
2022/10/03 18:27:59;;;;;;;5.93;3.10;;;12.80;99.90;;;;;;6245719;22;20206;-69
2022/10/03 18:30:33;;;;;;;9.93;3.83;;;12.70;99.90;;;;;;6244785;22;20180;-71
2022/10/03 18:33:01;;;;;;;6.07;2.90;;;12.60;99.90;;;;;;6245373;23;20183;-68
2022/10/03 18:35:30;;;;;;;3.70;2.67;;;12.60;99.90;;;;;;6244052;23;20206;-66
2022/10/03 18:38:08;;;;;;;7.03;2.93;;;12.60;99.90;;;;;;6242858;23;20175;-68
2022/10/03 18:40:44;;;;;;;6.43;3.37;;;12.60;99.90;;;;;;6244451;23;20176;-68
2022/10/03 18:43:30;;;;;;;9.37;3.20;;;12.60;99.90;;;;;;6243683;22;20187;-66
2022/10/03 18:46:15;;;;;;;5.73;3.20;;;12.50;99.90;;;;;;6243888;23;20196;-65
2022/10/03 18:48:57;;;;;;;7.53;3.03;;;12.60;99.90;;;;;;6244170;22;20176;-65
2022/10/03 18:51:32;;;;;;;8.20;3.97;;;12.60;99.90;;;;;;6244154;22;20183;-66
2022/10/03 18:54:02;;;;;;;8.67;3.60;;;12.60;99.90;;;;;;6244449;23;20199;-65
2022/10/03 18:56:31;;;;;;;10.03;3.80;;;12.50;99.90;;;;;;6244087;23;20266;-66
2022/10/03 18:59:15;;;;;;;6.77;3.30;;;12.50;99.90;;;;;;6244691;23;20636;-67
2022/10/03 19:01:51;;;;;;;6.00;2.90;;;12.40;99.90;;;;;;6245368;23;20182;-71
2022/10/03 19:04:28;;;;;;;8.97;3.57;;;12.50;99.90;;;;;;6246031;23;20179;-65
2022/10/03 19:06:56;;;;;;;5.93;3.67;;;12.40;99.90;;;;;;6244985;23;20210;-66
2022/10/03 19:09:26;;;;;;;6.07;3.57;;;12.40;99.90;;;;;;6245491;22;20190;-65
2022/10/03 19:12:03;;;;;;;9.70;3.33;;;12.30;99.90;;;;;;6245763;23;20179;-69
2022/10/03 19:14:34;;;;;;;6.43;3.67;;;12.20;99.90;;;;;;6245920;23;20309;-67
2022/10/03 19:17:25;;;;;;;5.77;2.93;;;12.20;99.90;;;;;;6245308;23;20185;-67
2022/10/03 19:19:54;;;;;;;5.57;2.73;;;12.10;99.90;;;;;;6245933;22;20184;-66
2022/10/03 19:22:30;;;;;;;5.50;2.60;;;12.00;99.90;;;;;;6245693;23;20282;-67
2022/10/03 19:25:01;;;;;;;6.63;2.97;;;11.90;99.90;;;;;;6246264;23;20278;-66
2022/10/03 19:27:40;;;;;;;6.73;3.47;;;11.90;99.90;;;;;;6246193;23;20176;-66
2022/10/03 19:30:08;;;;;;;5.87;2.47;;;11.80;99.90;;;;;;6245853;23;20279;-68
2022/10/03 19:32:49;;;;;;;4.77;2.30;;;11.80;99.90;;;;;;6246357;23;20252;-69
2022/10/03 19:35:20;;;;;;;6.77;2.70;;;11.80;99.90;;;;;;6245154;23;20206;-71
2022/10/03 19:37:50;;;;;;;4.90;2.60;;;11.80;99.90;;;;;;6246069;23;20540;-69
2022/10/03 19:40:42;;;;;;;9.73;2.80;;;11.70;99.90;;;;;;6245862;23;20179;-70
2022/10/03 19:43:34;;;;;;;5.43;2.77;;;11.70;99.90;;;;;;6246208;23;20199;-71
2022/10/03 19:46:22;;;;;;;6.00;2.87;;;11.60;99.90;;;;;;6238259;22;20210;-70
2022/10/03 19:48:54;;;;;;;4.97;2.63;;;11.60;99.90;;;;;;6246033;23;20179;-70
2022/10/03 19:51:24;;;;;;;5.03;2.50;;;11.60;99.90;;;;;;6245426;23;20671;-66
2022/10/03 19:53:53;;;;;;;5.53;3.00;;;11.60;99.90;;;;;;6245055;23;20243;-67
2022/10/03 19:56:22;;;;;;;6.40;2.80;;;11.60;99.90;;;;;;6244812;23;20209;-71
2022/10/03 19:59:00;;;;;;;5.10;2.77;;;11.60;99.90;;;;;;6245655;22;20182;-68
2022/10/03 20:01:27;;;;;;;5.93;2.83;;;11.60;99.90;;;;;;6245595;23;20233;-67
2022/10/03 20:03:56;;;;;;;4.93;2.70;;;11.60;99.90;;;;;;6245526;22;20650;-67
2022/10/03 20:06:26;;;;;;;3.90;2.90;;;11.70;99.90;;;;;;6244799;23;20207;-72
2022/10/03 20:08:56;;;;;;;6.30;3.00;;;11.70;99.90;;;;;;6245142;23;20653;-71
2022/10/03 20:11:41;;;;;;;8.47;2.70;;;11.60;99.90;;;;;;6244822;23;20179;-69
2022/10/03 20:14:15;;;;;;;4.97;2.73;;;11.70;99.90;;;;;;6245069;23;20203;-66
2022/10/03 20:16:46;;;;;;;7.20;2.77;;;11.60;99.90;;;;;;6244955;23;20760;-65
2022/10/03 20:19:16;;;;;;;5.87;3.33;;;11.70;99.90;;;;;;6244848;23;20703;-66
2022/10/03 20:21:51;;;;;;;7.27;3.37;;;11.70;99.90;;;;;;6245073;23;20191;-66
2022/10/03 20:24:22;;;;;;;5.23;3.33;;;11.80;99.90;;;;;;6244833;23;20269;-66
2022/10/03 20:27:00;;;;;;;7.23;3.17;;;11.80;99.90;;;;;;6244683;23;20199;-65
2022/10/03 20:29:33;;;;;;;5.83;2.67;;;11.80;99.90;;;;;;6244938;23;20241;-68
2022/10/03 20:32:01;;;;;;;7.47;3.40;;;11.80;99.90;;;;;;6244786;23;20172;-66
2022/10/03 20:34:30;;;;;;;4.63;2.80;;;11.80;99.90;;;;;;6244687;23;20204;-66
2022/10/03 20:37:13;;;;;;;6.23;3.07;;;11.80;99.90;;;;;;6244755;23;20267;-71
2022/10/03 20:39:45;;;;;;;5.47;2.83;;;11.70;99.90;;;;;;6245436;23;20176;-71
2022/10/03 20:42:16;;;;;;;9.17;2.67;;;11.70;99.90;;;;;;6244940;22;20179;-68
2022/10/03 20:44:56;;;;;;;4.83;2.57;;;11.80;99.90;;;;;;6244578;23;20179;-66
2022/10/03 20:47:42;;;;;;;7.60;3.20;;;11.70;99.90;;;;;;6245032;22;20222;-69
2022/10/03 20:50:17;;;;;;;4.77;2.77;;;11.70;99.90;;;;;;6245488;23;20233;-68
2022/10/03 20:52:50;;;;;;;5.13;2.67;;;11.70;99.90;;;;;;6245061;23;20648;-67
2022/10/03 20:55:21;;;;;;;5.50;2.57;;;11.60;99.90;;;;;;6245511;23;20218;-73
2022/10/03 20:57:59;;;;;;;5.07;2.83;;;11.50;99.90;;;;;;6245521;23;20182;-72
2022/10/03 21:00:28;;;;;;;4.93;2.23;;;11.50;99.90;;;;;;6244815;23;20565;-67
2022/10/03 21:03:01;;;;;;;5.67;3.27;;;11.40;99.90;;;;;;6244563;23;20478;-70
2022/10/03 21:05:33;;;;;;;6.17;2.87;;;11.40;99.90;;;;;;6245331;22;20208;-71
2022/10/03 21:08:03;;;;;;;7.23;2.83;;;11.40;99.90;;;;;;6244724;23;20182;-71
2022/10/03 21:10:34;;;;;;;6.80;2.40;;;11.30;99.90;;;;;;6245322;23;20238;-71
2022/10/03 21:13:02;;;;;;;4.33;2.70;;;11.40;99.90;;;;;;6245694;23;20512;-71
2022/10/03 21:15:45;;;;;;;5.73;2.77;;;11.30;99.90;;;;;;6245765;23;20211;-70
2022/10/03 21:18:21;;;;;;;5.77;2.70;;;11.30;99.90;;;;;;6245868;22;20234;-70
2022/10/03 21:20:58;;;;;;;4.00;2.93;;;11.20;99.90;;;;;;6245658;23;20183;-70